Time;durP1;ratioP1;P1;durP2;ratioP2;P2;SDS_P1;SDS_P2;PMS_P1;PMS_P2;Temp;Humidity;BMP_temperature;BMP_pressure;BME280_temperature;BME280_humidity;BME280_pressure;Samples;Min_cycle;Max_cycle;Signal;HPM_P1;HPM_P2
2024/03/16 00:00:37;;;;;;;4.93;2.60;;;;;;;;;;4989270;28;20027;-82
2024/03/16 00:03:04;;;;;;;3.88;2.05;;;;;;;;;;4984984;28;20049;-81
2024/03/16 00:05:30;;;;;;;5.32;2.60;;;;;;;;;;4975346;28;20109;-81
2024/03/16 00:07:57;;;;;;;4.20;2.58;;;;;;;;;;4975893;28;20033;-82
2024/03/16 00:10:22;;;;;;;4.88;2.55;;;;;;;;;;5010069;28;20053;-82
2024/03/16 00:12:48;;;;;;;4.10;2.22;;;;;;;;;;4965038;28;20022;-82
2024/03/16 00:15:15;;;;;;;4.78;2.33;;;;;;;;;;4981565;28;20049;-82
2024/03/16 00:17:41;;;;;;;5.80;3.05;;;;;;;;;;4990039;28;20030;-81
2024/03/16 00:20:10;;;;;;;5.28;2.42;;;;;;;;;;5004079;28;20026;-82
2024/03/16 00:22:39;;;;;;;4.88;2.20;;;;;;;;;;5007010;28;20033;-82
2024/03/16 00:25:04;;;;;;;;;;;;;;;;;;5020006;28;20022;-82
2024/03/16 00:27:30;;;;;;;5.82;2.70;;;;;;;;;;4981908;28;19965;-82
2024/03/16 00:29:56;;;;;;;4.53;2.58;;;;;;;;;;4977870;28;20129;-81
2024/03/16 00:32:22;;;;;;;6.95;2.53;;;;;;;;;;4987933;28;20049;-81
2024/03/16 00:34:48;;;;;;;5.93;2.30;;;;;;;;;;4977277;28;20043;-81
2024/03/16 00:37:13;;;;;;;6.63;2.35;;;;;;;;;;4983777;28;20037;-82
2024/03/16 00:39:45;;;;;;;8.63;2.63;;;;;;;;;;4984258;28;20052;-81
2024/03/16 00:42:11;;;;;;;10.02;2.40;;;;;;;;;;5000702;28;20112;-83
2024/03/16 00:44:37;;;;;;;5.28;2.63;;;;;;;;;;4978549;28;20061;-83
2024/03/16 00:47:02;;;;;;;7.15;2.58;;;;;;;;;;4994227;28;20058;-83
2024/03/16 00:49:28;;;;;;;5.72;2.72;;;;;;;;;;4972866;28;20037;-84
2024/03/16 00:51:54;;;;;;;7.10;2.92;;;;;;;;;;4980819;28;20042;-84
2024/03/16 00:54:19;;;;;;;5.07;2.70;;;;;;;;;;4964791;28;20034;-82
2024/03/16 00:56:50;;;;;;;7.97;2.35;;;;;;;;;;4988639;28;20097;-82
2024/03/16 00:59:15;;;;;;;6.40;2.45;;;;;;;;;;4995580;28;20056;-83
2024/03/16 01:01:41;;;;;;;4.65;2.08;;;;;;;;;;5003411;28;20038;-81
2024/03/16 01:04:07;;;;;;;6.60;2.22;;;;;;;;;;4997175;28;20030;-82
2024/03/16 01:06:34;;;;;;;7.80;2.30;;;;;;;;;;5002208;28;20030;-82
2024/03/16 01:09:00;;;;;;;6.05;2.22;;;;;;;;;;4988400;28;20528;-82
2024/03/16 01:11:25;;;;;;;6.70;2.17;;;;;;;;;;4978474;28;20034;-82
2024/03/16 01:13:51;;;;;;;6.05;2.80;;;;;;;;;;5007733;28;20030;-82
2024/03/16 01:16:17;;;;;;;7.63;3.00;;;;;;;;;;4993906;28;20065;-83
2024/03/16 01:18:42;;;;;;;6.03;2.25;;;;;;;;;;5003463;28;20036;-81
2024/03/16 01:21:08;;;;;;;8.55;2.40;;;;;;;;;;4978693;28;20030;-81
2024/03/16 01:23:33;;;;;;;4.28;2.20;;;;;;;;;;4979381;28;20390;-83
2024/03/16 01:25:59;;;;;;;3.75;2.25;;;;;;;;;;4983214;28;20371;-81
2024/03/16 01:28:26;;;;;;;2.80;1.90;;;;;;;;;;4987712;28;20033;-82
2024/03/16 01:30:52;;;;;;;5.40;2.67;;;;;;;;;;4973720;28;20121;-80
2024/03/16 01:33:18;;;;;;;6.63;2.20;;;;;;;;;;4985188;28;20041;-81
2024/03/16 01:35:44;;;;;;;4.03;2.13;;;;;;;;;;4990497;28;20061;-81
2024/03/16 01:38:10;;;;;;;5.63;2.22;;;;;;;;;;5021040;28;20030;-82
2024/03/16 01:40:37;;;;;;;5.00;2.40;;;;;;;;;;4984423;28;20045;-81
2024/03/16 01:43:03;;;;;;;5.88;2.50;;;;;;;;;;4988505;28;20493;-81
2024/03/16 01:45:28;;;;;;;4.80;2.30;;;;;;;;;;4991303;28;20056;-82
2024/03/16 01:47:55;;;;;;;4.07;2.40;;;;;;;;;;4996223;28;20029;-81
2024/03/16 01:50:24;;;;;;;6.20;2.13;;;;;;;;;;4972308;28;20064;-82
2024/03/16 01:52:49;;;;;;;5.72;2.03;;;;;;;;;;4957704;28;20053;-81
2024/03/16 01:55:16;;;;;;;4.03;1.83;;;;;;;;;;4992429;28;20124;-83
2024/03/16 01:57:42;;;;;;;4.05;1.70;;;;;;;;;;4984360;28;20034;-81
2024/03/16 02:00:11;;;;;;;3.90;1.75;;;;;;;;;;4979375;28;20040;-81
2024/03/16 02:02:38;;;;;;;7.13;1.75;;;;;;;;;;5002092;28;20044;-81
2024/03/16 02:05:07;;;;;;;3.50;1.52;;;;;;;;;;4967217;28;20046;-80
2024/03/16 02:07:34;;;;;;;7.88;2.13;;;;;;;;;;4963728;28;20428;-82
2024/03/16 02:10:00;;;;;;;4.25;1.60;;;;;;;;;;4989077;28;20064;-80
2024/03/16 02:12:26;;;;;;;4.03;1.42;;;;;;;;;;4964646;28;20054;-81
2024/03/16 02:14:52;;;;;;;7.30;1.80;;;;;;;;;;4973601;28;20036;-82
2024/03/16 02:17:17;;;;;;;6.28;1.80;;;;;;;;;;4981593;28;20535;-82
2024/03/16 02:19:47;;;;;;;5.68;1.85;;;;;;;;;;5003810;28;20120;-81
2024/03/16 02:22:16;;;;;;;4.15;1.45;;;;;;;;;;4980558;28;20049;-81
2024/03/16 02:24:41;;;;;;;;;;;;;;;;;;4982786;28;20058;-82
2024/03/16 02:27:10;;;;;;;6.03;1.75;;;;;;;;;;4975128;28;20001;-81
2024/03/16 02:29:36;;;;;;;5.03;1.65;;;;;;;;;;4973270;28;20085;-81
2024/03/16 02:32:07;;;;;;;4.63;1.50;;;;;;;;;;5020249;28;20061;-81
2024/03/16 02:34:34;;;;;;;4.43;1.73;;;;;;;;;;4961991;28;20037;-82
2024/03/16 02:37:00;;;;;;;3.38;1.30;;;;;;;;;;4999126;28;20034;-82
2024/03/16 02:39:26;;;;;;;2.42;1.48;;;;;;;;;;5021764;28;20040;-81
2024/03/16 02:41:55;;;;;;;2.88;1.40;;;;;;;;;;4979532;28;20034;-83
2024/03/16 02:44:25;;;;;;;3.60;1.77;;;;;;;;;;4984655;28;20073;-81
2024/03/16 02:46:52;;;;;;;7.00;1.45;;;;;;;;;;5001860;28;20049;-82
2024/03/16 02:49:17;;;;;;;5.63;1.10;;;;;;;;;;4975691;28;20034;-82
2024/03/16 02:51:43;;;;;;;5.32;1.25;;;;;;;;;;4992503;28;20030;-81
2024/03/16 02:54:09;;;;;;;2.90;1.10;;;;;;;;;;5008355;28;20038;-81
2024/03/16 02:56:35;;;;;;;2.35;0.98;;;;;;;;;;4997278;28;20030;-82
2024/03/16 02:59:00;;;;;;;2.40;0.95;;;;;;;;;;4995322;28;20049;-82
2024/03/16 03:01:26;;;;;;;4.55;1.10;;;;;;;;;;4985677;28;20030;-81
2024/03/16 03:03:51;;;;;;;2.85;1.00;;;;;;;;;;4959988;28;20133;-83
2024/03/16 03:06:20;;;;;;;3.97;1.20;;;;;;;;;;4974313;28;20030;-82
2024/03/16 03:08:47;;;;;;;2.70;0.82;;;;;;;;;;5023323;28;20036;-81
2024/03/16 03:11:13;;;;;;;2.85;1.02;;;;;;;;;;4984509;28;20058;-82
2024/03/16 03:13:39;;;;;;;3.50;1.05;;;;;;;;;;4980286;28;20591;-83
2024/03/16 03:16:04;;;;;;;3.60;1.00;;;;;;;;;;4999554;28;20025;-82
2024/03/16 03:18:30;;;;;;;1.80;0.80;;;;;;;;;;4993725;28;20092;-82
2024/03/16 03:20:56;;;;;;;3.45;0.85;;;;;;;;;;4983282;28;20059;-82
2024/03/16 03:23:21;;;;;;;5.18;1.20;;;;;;;;;;4994104;28;20097;-82
2024/03/16 03:25:48;;;;;;;1.23;0.60;;;;;;;;;;4986637;28;20034;-83
2024/03/16 03:28:17;;;;;;;2.25;0.90;;;;;;;;;;4987510;28;20052;-81
2024/03/16 03:30:43;;;;;;;4.63;0.90;;;;;;;;;;4991422;28;20056;-80
2024/03/16 03:33:09;;;;;;;2.20;0.70;;;;;;;;;;5015654;28;20264;-80
2024/03/16 03:35:35;;;;;;;1.83;0.80;;;;;;;;;;4969523;28;20030;-81
2024/03/16 03:38:02;;;;;;;4.20;0.80;;;;;;;;;;4973969;28;20040;-80
2024/03/16 03:40:28;;;;;;;0.98;0.43;;;;;;;;;;5005473;28;20492;-80
2024/03/16 03:42:55;;;;;;;0.93;0.45;;;;;;;;;;4981776;28;20045;-82
2024/03/16 03:48:25;;;;;;;2.03;0.70;;;;;;;;;;4987851;28;20038;-81
2024/03/16 03:50:51;;;;;;;0.98;0.50;;;;;;;;;;4962140;28;20049;-82
2024/03/16 03:53:17;;;;;;;1.83;0.70;;;;;;;;;;4974884;28;20065;-82
2024/03/16 03:55:43;;;;;;;2.47;0.50;;;;;;;;;;4994386;28;20041;-81
2024/03/16 03:58:09;;;;;;;3.55;0.98;;;;;;;;;;4983297;28;20030;-82
2024/03/16 04:00:35;;;;;;;2.28;1.13;;;;;;;;;;5003782;28;20026;-82
2024/03/16 04:03:04;;;;;;;2.63;0.68;;;;;;;;;;4994954;28;20129;-83
2024/03/16 04:05:31;;;;;;;1.95;0.70;;;;;;;;;;4990991;28;20044;-83
2024/03/16 04:07:57;;;;;;;1.85;0.50;;;;;;;;;;5001388;28;20124;-83
2024/03/16 04:10:22;;;;;;;2.13;0.50;;;;;;;;;;4967904;28;20054;-83
2024/03/16 04:12:48;;;;;;;2.55;0.80;;;;;;;;;;5007076;28;20527;-83
2024/03/16 04:15:14;;;;;;;1.10;0.63;;;;;;;;;;4996158;28;20054;-83
2024/03/16 04:17:40;;;;;;;1.75;0.57;;;;;;;;;;5006901;28;20038;-82
2024/03/16 04:20:10;;;;;;;1.30;0.68;;;;;;;;;;4987783;28;20042;-83
2024/03/16 04:22:36;;;;;;;1.83;0.70;;;;;;;;;;4980221;28;20049;-82
2024/03/16 04:25:11;;;;;;;1.30;0.60;;;;;;;;;;4989359;28;20022;-83
2024/03/16 04:27:39;;;;;;;3.80;0.60;;;;;;;;;;4982824;28;20037;-83
2024/03/16 04:30:06;;;;;;;1.33;0.40;;;;;;;;;;4964162;28;20113;-83
2024/03/16 04:32:33;;;;;;;2.97;0.70;;;;;;;;;;4972515;28;20490;-83
2024/03/16 04:35:02;;;;;;;3.08;0.93;;;;;;;;;;5012423;28;20049;-83
2024/03/16 04:37:28;;;;;;;1.15;0.52;;;;;;;;;;4997674;28;20030;-83
2024/03/16 04:39:55;;;;;;;2.53;0.90;;;;;;;;;;4983327;28;20033;-83
2024/03/16 04:42:21;;;;;;;1.13;0.63;;;;;;;;;;4982889;28;20061;-84
2024/03/16 04:44:47;;;;;;;3.35;0.85;;;;;;;;;;4989723;28;20061;-83
2024/03/16 04:47:13;;;;;;;3.97;0.90;;;;;;;;;;4983236;28;20042;-83
2024/03/16 04:49:38;;;;;;;3.38;0.90;;;;;;;;;;4984114;28;20037;-82
2024/03/16 04:52:04;;;;;;;3.78;0.93;;;;;;;;;;5003716;28;20112;-83
2024/03/16 04:54:30;;;;;;;3.17;1.17;;;;;;;;;;4997357;28;20038;-82
2024/03/16 04:56:57;;;;;;;2.53;0.95;;;;;;;;;;4979012;28;20033;-83
2024/03/16 04:59:23;;;;;;;1.80;0.60;;;;;;;;;;5003322;28;20121;-82
2024/03/16 05:01:48;;;;;;;2.97;0.90;;;;;;;;;;4997037;28;20040;-83
2024/03/16 05:04:14;;;;;;;2.30;1.05;;;;;;;;;;4989055;28;20029;-82
2024/03/16 05:06:41;;;;;;;1.10;0.60;;;;;;;;;;5010628;28;20065;-83
2024/03/16 05:09:10;;;;;;;4.35;0.88;;;;;;;;;;4989362;28;20133;-82
2024/03/16 05:11:38;;;;;;;1.73;0.73;;;;;;;;;;4981161;28;20181;-82
2024/03/16 05:14:07;;;;;;;2.60;0.63;;;;;;;;;;4994562;28;20038;-81
2024/03/16 05:16:37;;;;;;;2.20;0.75;;;;;;;;;;5010067;28;20102;-82
2024/03/16 05:19:04;;;;;;;3.55;0.90;;;;;;;;;;4974805;28;20056;-83
2024/03/16 05:21:34;;;;;;;4.93;0.70;;;;;;;;;;4961760;28;20030;-83
2024/03/16 05:23:59;;;;;;;3.00;0.95;;;;;;;;;;5001226;28;20025;-81
2024/03/16 05:26:26;;;;;;;1.73;0.80;;;;;;;;;;4996359;28;20122;-83
2024/03/16 05:28:52;;;;;;;1.70;0.50;;;;;;;;;;5006780;28;20030;-82
2024/03/16 05:31:17;;;;;;;4.72;0.90;;;;;;;;;;5015807;28;20040;-82
2024/03/16 05:33:43;;;;;;;4.40;0.80;;;;;;;;;;4973750;28;20054;-83
2024/03/16 05:36:15;;;;;;;5.32;1.42;;;;;;;;;;4975741;28;20026;-83
2024/03/16 05:38:43;;;;;;;3.72;1.15;;;;;;;;;;5014877;28;20105;-81
2024/03/16 05:41:09;;;;;;;3.17;0.90;;;;;;;;;;4993201;28;20030;-83
2024/03/16 05:43:35;;;;;;;2.17;1.15;;;;;;;;;;5017753;28;20030;-82
2024/03/16 05:46:01;;;;;;;2.63;0.80;;;;;;;;;;4974408;28;20048;-84
2024/03/16 05:48:27;;;;;;;1.90;0.80;;;;;;;;;;5005164;28;20489;-82
2024/03/16 05:50:56;;;;;;;2.63;0.93;;;;;;;;;;5014091;28;20053;-82
2024/03/16 05:53:25;;;;;;;3.20;1.05;;;;;;;;;;4979146;28;20045;-82
2024/03/16 05:55:51;;;;;;;4.28;1.10;;;;;;;;;;5020775;28;20062;-82
2024/03/16 05:58:17;;;;;;;4.20;0.90;;;;;;;;;;5000131;28;20048;-81
2024/03/16 06:00:43;;;;;;;2.80;1.13;;;;;;;;;;4993458;28;20054;-83
2024/03/16 06:03:10;;;;;;;4.15;1.00;;;;;;;;;;4997308;28;20029;-83
2024/03/16 06:05:35;;;;;;;2.13;1.27;;;;;;;;;;5028430;28;20029;-82
2024/03/16 06:08:04;;;;;;;2.88;1.20;;;;;;;;;;5051338;28;20048;-83
2024/03/16 06:10:31;;;;;;;1.92;0.80;;;;;;;;;;5010395;28;20040;-83
2024/03/16 06:12:58;;;;;;;2.88;1.02;;;;;;;;;;4992147;28;20045;-82
2024/03/16 06:15:24;;;;;;;4.72;0.80;;;;;;;;;;4999126;28;20034;-83
2024/03/16 06:17:50;;;;;;;4.97;0.98;;;;;;;;;;5000281;28;20045;-82
2024/03/16 06:20:16;;;;;;;2.92;1.25;;;;;;;;;;4992411;28;20065;-81
2024/03/16 06:22:41;;;;;;;2.72;0.90;;;;;;;;;;4984451;28;20059;-81
2024/03/16 06:25:12;;;;;;;5.32;0.90;;;;;;;;;;4967432;28;20057;-82
2024/03/16 06:28:05;;;;;;;2.40;0.95;;;;;;;;;;4978034;28;20060;-82
2024/03/16 06:30:32;;;;;;;3.05;1.00;;;;;;;;;;5010025;28;20033;-82
2024/03/16 06:33:08;;;;;;;2.42;1.23;;;;;;;;;;5030808;28;20067;-82
2024/03/16 06:35:36;;;;;;;2.30;0.90;;;;;;;;;;4994966;28;20048;-82
2024/03/16 06:38:02;;;;;;;3.33;1.03;;;;;;;;;;4992239;28;20037;-81
2024/03/16 06:40:28;;;;;;;5.03;1.30;;;;;;;;;;4988714;28;20092;-81
2024/03/16 06:42:53;;;;;;;3.08;0.98;;;;;;;;;;4991317;28;20560;-81
2024/03/16 06:45:19;;;;;;;2.67;1.17;;;;;;;;;;4979230;28;20512;-82
2024/03/16 06:47:45;;;;;;;3.42;1.13;;;;;;;;;;5006683;28;20050;-82
2024/03/16 06:50:10;;;;;;;3.50;1.25;;;;;;;;;;4998578;28;20453;-81
2024/03/16 06:52:36;;;;;;;2.90;1.25;;;;;;;;;;5009245;28;20445;-83
2024/03/16 06:55:03;;;;;;;5.95;1.38;;;;;;;;;;4981703;28;20453;-81
2024/03/16 06:57:38;;;;;;;4.05;1.38;;;;;;;;;;4980154;28;20387;-81
2024/03/16 07:00:09;;;;;;;5.40;1.38;;;;;;;;;;4966288;28;20474;-81
2024/03/16 07:02:34;;;;;;;6.20;1.33;;;;;;;;;;4970849;28;20484;-82
2024/03/16 07:05:00;;;;;;;4.30;1.45;;;;;;;;;;4984345;28;20045;-81
2024/03/16 07:07:26;;;;;;;2.85;1.40;;;;;;;;;;4977851;28;20463;-83
2024/03/16 07:09:54;;;;;;;3.72;1.42;;;;;;;;;;4965981;28;20091;-81
2024/03/16 07:12:21;;;;;;;2.65;1.10;;;;;;;;;;4968537;28;20472;-83
2024/03/16 07:14:47;;;;;;;7.70;1.50;;;;;;;;;;5000926;28;20029;-82
2024/03/16 07:17:12;;;;;;;2.25;1.10;;;;;;;;;;5009270;28;20037;-82
2024/03/16 07:19:38;;;;;;;4.05;1.58;;;;;;;;;;4984784;28;20070;-82
2024/03/16 07:22:05;;;;;;;3.47;1.50;;;;;;;;;;4998338;28;20034;-81
2024/03/16 07:24:31;;;;;;;4.47;1.40;;;;;;;;;;4968612;28;20026;-83
2024/03/16 07:26:56;;;;;;;5.28;1.65;;;;;;;;;;5004373;28;20069;-82
2024/03/16 07:29:22;;;;;;;4.40;1.38;;;;;;;;;;4983563;28;20034;-83
2024/03/16 07:31:49;;;;;;;3.63;1.17;;;;;;;;;;4958617;28;20038;-82
2024/03/16 07:34:15;;;;;;;6.55;1.70;;;;;;;;;;4993387;28;20038;-82
2024/03/16 07:36:41;;;;;;;3.85;1.48;;;;;;;;;;5003928;28;20030;-81
2024/03/16 07:39:08;;;;;;;5.78;1.55;;;;;;;;;;4997826;28;20031;-83
2024/03/16 07:41:36;;;;;;;5.85;1.85;;;;;;;;;;4962913;28;20023;-82
2024/03/16 07:44:02;;;;;;;5.05;2.15;;;;;;;;;;4998199;28;20038;-83
2024/03/16 07:46:28;;;;;;;3.95;1.35;;;;;;;;;;4976314;28;20041;-81
2024/03/16 07:48:59;;;;;;;3.83;1.55;;;;;;;;;;4991263;28;20037;-82
2024/03/16 07:51:28;;;;;;;5.97;1.52;;;;;;;;;;4991240;28;20026;-82
2024/03/16 07:53:58;;;;;;;4.57;1.70;;;;;;;;;;4994071;28;20021;-81
2024/03/16 07:56:25;;;;;;;4.05;1.38;;;;;;;;;;5011600;28;20025;-81
2024/03/16 07:58:51;;;;;;;8.55;2.95;;;;;;;;;;4975862;28;20397;-81
2024/03/16 08:01:16;;;;;;;6.75;1.55;;;;;;;;;;4979243;28;20025;-82
2024/03/16 08:03:42;;;;;;;3.13;1.20;;;;;;;;;;4993618;28;20023;-82
2024/03/16 08:06:08;;;;;;;5.03;1.30;;;;;;;;;;4977906;28;20026;-81
2024/03/16 08:08:34;;;;;;;4.20;1.20;;;;;;;;;;4997124;28;20037;-82
2024/03/16 08:11:00;;;;;;;3.67;1.30;;;;;;;;;;4997815;28;20927;-82
2024/03/16 08:13:26;;;;;;;4.38;1.95;;;;;;;;;;4993914;28;20037;-82
2024/03/16 08:15:52;;;;;;;4.45;1.30;;;;;;;;;;4981370;28;20046;-82
2024/03/16 08:18:18;;;;;;;4.95;1.70;;;;;;;;;;4994609;28;20072;-82
2024/03/16 08:20:43;;;;;;;6.13;1.60;;;;;;;;;;4998269;28;20041;-81
2024/03/16 08:23:09;;;;;;;2.70;1.30;;;;;;;;;;4978561;28;20030;-83
2024/03/16 08:25:35;;;;;;;3.80;1.55;;;;;;;;;;4973684;28;20493;-82
2024/03/16 08:28:01;;;;;;;4.13;1.60;;;;;;;;;;4995305;28;20644;-82
2024/03/16 08:30:27;;;;;;;4.22;1.70;;;;;;;;;;4984126;28;20320;-83
2024/03/16 08:32:52;;;;;;;4.28;1.50;;;;;;;;;;4995483;28;20060;-82
2024/03/16 08:35:18;;;;;;;5.93;1.80;;;;;;;;;;4985659;28;20035;-83
2024/03/16 08:37:46;;;;;;;5.38;1.55;;;;;;;;;;4977504;28;20038;-82
2024/03/16 08:40:11;;;;;;;4.88;1.77;;;;;;;;;;5006231;28;20029;-82
2024/03/16 08:42:43;;;;;;;4.95;1.20;;;;;;;;;;4992136;28;20036;-83
2024/03/16 08:45:09;;;;;;;7.82;1.60;;;;;;;;;;4997799;28;20080;-82
2024/03/16 08:47:35;;;;;;;1.73;0.93;;;;;;;;;;5002479;28;20037;-83
2024/03/16 08:50:01;;;;;;;4.13;1.45;;;;;;;;;;5003449;28;20469;-83
2024/03/16 08:52:27;;;;;;;3.67;1.15;;;;;;;;;;4982316;28;20061;-83
2024/03/16 08:54:55;;;;;;;2.53;1.08;;;;;;;;;;4989163;28;20037;-82
2024/03/16 08:57:24;;;;;;;3.42;1.25;;;;;;;;;;4989607;28;20034;-84
2024/03/16 08:59:53;;;;;;;1.85;0.90;;;;;;;;;;5008395;28;20029;-83
2024/03/16 09:02:24;;;;;;;5.65;1.42;;;;;;;;;;5001331;28;20062;-83
2024/03/16 09:04:55;;;;;;;3.60;1.27;;;;;;;;;;4979244;28;20128;-81
2024/03/16 09:07:21;;;;;;;4.60;1.20;;;;;;;;;;4971583;28;20029;-83
2024/03/16 09:09:47;;;;;;;3.22;1.40;;;;;;;;;;4992345;28;20503;-83
2024/03/16 09:12:13;;;;;;;3.53;1.63;;;;;;;;;;5001026;28;20050;-82
2024/03/16 09:14:39;;;;;;;5.05;1.40;;;;;;;;;;5012923;28;20038;-83
2024/03/16 09:17:07;;;;;;;7.30;1.30;;;;;;;;;;5008086;28;20041;-82
2024/03/16 09:19:32;;;;;;;3.38;1.25;;;;;;;;;;4994498;28;20029;-82
2024/03/16 09:21:58;;;;;;;3.33;1.42;;;;;;;;;;4958991;28;20101;-83
2024/03/16 09:24:24;;;;;;;4.07;1.40;;;;;;;;;;4964638;28;20033;-82
2024/03/16 09:26:49;;;;;;;6.35;1.73;;;;;;;;;;4981570;28;20486;-82
2024/03/16 09:29:15;;;;;;;3.53;1.58;;;;;;;;;;5008706;28;20037;-82
2024/03/16 09:31:41;;;;;;;4.57;1.50;;;;;;;;;;4992123;28;20072;-82
2024/03/16 09:34:10;;;;;;;4.95;1.30;;;;;;;;;;4966461;28;20129;-80
2024/03/16 09:36:37;;;;;;;4.28;1.50;;;;;;;;;;4974771;28;20034;-81
2024/03/16 09:39:09;;;;;;;3.47;1.40;;;;;;;;;;4973362;28;20048;-83
2024/03/16 09:41:35;;;;;;;2.90;1.10;;;;;;;;;;5007306;28;20037;-83
2024/03/16 09:44:01;;;;;;;4.07;1.50;;;;;;;;;;4987366;28;20033;-80
2024/03/16 09:46:31;;;;;;;3.75;1.65;;;;;;;;;;4978941;28;20095;-80
2024/03/16 09:48:57;;;;;;;3.97;1.48;;;;;;;;;;4983014;28;20058;-81
2024/03/16 09:51:24;;;;;;;4.47;1.33;;;;;;;;;;4964509;28;20036;-81
2024/03/16 09:53:53;;;;;;;4.88;1.45;;;;;;;;;;4966861;28;20023;-81
2024/03/16 09:56:19;;;;;;;2.90;1.58;;;;;;;;;;4979921;28;20038;-82
2024/03/16 09:58:46;;;;;;;4.75;1.60;;;;;;;;;;4991028;28;20443;-82
2024/03/16 10:01:15;;;;;;;3.05;1.48;;;;;;;;;;4975903;28;20034;-81
2024/03/16 10:03:42;;;;;;;5.97;2.10;;;;;;;;;;4970172;28;20030;-81
2024/03/16 10:06:09;;;;;;;4.93;1.73;;;;;;;;;;4994010;28;20035;-81
2024/03/16 10:08:38;;;;;;;5.05;2.13;;;;;;;;;;4979880;28;20052;-83
2024/03/16 10:11:03;;;;;;;4.78;1.65;;;;;;;;;;5001349;28;20029;-80
2024/03/16 10:13:29;;;;;;;4.35;1.73;;;;;;;;;;4974971;28;20041;-82
2024/03/16 10:15:56;;;;;;;3.17;1.58;;;;;;;;;;4974494;28;20079;-80
2024/03/16 10:18:22;;;;;;;4.43;1.60;;;;;;;;;;4992554;28;20523;-80
2024/03/16 10:20:48;;;;;;;4.72;1.90;;;;;;;;;;4988852;28;20034;-82
2024/03/16 10:23:19;;;;;;;5.25;1.88;;;;;;;;;;4995443;28;20057;-82
2024/03/16 10:25:48;;;;;;;3.85;1.35;;;;;;;;;;4978443;28;20061;-82
2024/03/16 10:28:17;;;;;;;4.97;1.50;;;;;;;;;;5006733;28;20038;-82
2024/03/16 10:30:44;;;;;;;5.63;1.50;;;;;;;;;;4978014;28;20089;-82
2024/03/16 10:33:10;;;;;;;2.90;1.45;;;;;;;;;;4959886;28;20049;-82
2024/03/16 10:35:39;;;;;;;5.15;1.58;;;;;;;;;;4985533;28;20030;-82
2024/03/16 10:38:10;;;;;;;5.85;1.45;;;;;;;;;;4979534;28;20117;-82
2024/03/16 10:40:38;;;;;;;3.33;1.50;;;;;;;;;;4981804;28;20050;-82
2024/03/16 10:43:30;;;;;;;3.05;1.40;;;;;;;;;;4979619;28;20053;-81
2024/03/16 10:46:19;;;;;;;3.13;1.25;;;;;;;;;;4982792;28;20026;-81
2024/03/16 10:48:56;;;;;;;4.10;1.52;;;;;;;;;;4989121;28;20516;-82
2024/03/16 10:51:27;;;;;;;4.35;1.35;;;;;;;;;;5005818;28;20378;-82
2024/03/16 10:53:56;;;;;;;8.95;1.80;;;;;;;;;;4971731;28;20053;-83
2024/03/16 10:56:32;;;;;;;4.78;1.38;;;;;;;;;;4979203;28;20030;-81
2024/03/16 10:58:57;;;;;;;4.95;1.38;;;;;;;;;;4994743;28;20018;-82
2024/03/16 11:01:25;;;;;;;3.08;1.30;;;;;;;;;;4967905;28;20034;-80
2024/03/16 11:03:54;;;;;;;4.07;1.90;;;;;;;;;;4977572;28;20486;-82
2024/03/16 11:06:21;;;;;;;3.63;1.42;;;;;;;;;;4994674;28;20072;-81
2024/03/16 11:08:50;;;;;;;4.97;1.35;;;;;;;;;;4975838;28;20032;-81
2024/03/16 11:11:16;;;;;;;4.90;1.58;;;;;;;;;;4960968;28;20026;-81
2024/03/16 11:13:54;;;;;;;7.95;1.38;;;;;;;;;;4981075;28;20468;-82
2024/03/16 11:16:27;;;;;;;5.17;1.33;;;;;;;;;;4975907;28;20589;-82
2024/03/16 11:19:17;;;;;;;4.20;1.73;;;;;;;;;;4992163;28;20559;-82
2024/03/16 11:21:48;;;;;;;4.32;1.38;;;;;;;;;;4969484;28;20037;-83
2024/03/16 11:24:16;;;;;;;5.00;1.48;;;;;;;;;;4978977;28;20059;-82
2024/03/16 11:26:43;;;;;;;3.90;1.00;;;;;;;;;;5006054;28;20034;-83
2024/03/16 11:29:09;;;;;;;3.50;1.30;;;;;;;;;;4991146;28;20648;-82
2024/03/16 11:31:38;;;;;;;4.78;1.38;;;;;;;;;;4989512;28;20052;-82
2024/03/16 11:34:08;;;;;;;4.15;1.50;;;;;;;;;;4999863;28;20132;-83
2024/03/16 11:36:36;;;;;;;2.58;1.10;;;;;;;;;;4999087;28;20049;-82
2024/03/16 11:39:10;;;;;;;6.43;1.50;;;;;;;;;;4989919;28;20065;-83
2024/03/16 11:41:45;;;;;;;3.67;1.30;;;;;;;;;;5000235;28;20054;-83
2024/03/16 11:44:14;;;;;;;5.60;1.40;;;;;;;;;;4996413;28;20045;-82
2024/03/16 11:46:39;;;;;;;;;;;;;;;;;;4988622;28;20041;-83
2024/03/16 11:49:09;;;;;;;3.20;1.40;;;;;;;;;;4993082;28;19909;-83
2024/03/16 11:51:38;;;;;;;3.22;1.85;;;;;;;;;;4983079;28;20068;-83
2024/03/16 11:54:07;;;;;;;2.38;1.27;;;;;;;;;;4998935;28;20033;-83
2024/03/16 11:56:34;;;;;;;3.92;1.30;;;;;;;;;;5005857;28;20030;-82
2024/03/16 11:59:08;;;;;;;6.00;1.90;;;;;;;;;;4995380;28;20041;-83
2024/03/16 12:01:36;;;;;;;3.13;1.00;;;;;;;;;;4963264;28;20038;-83
2024/03/16 12:04:03;;;;;;;3.53;1.30;;;;;;;;;;4985218;28;20397;-83
2024/03/16 12:06:29;;;;;;;4.63;1.20;;;;;;;;;;4992759;28;20030;-83
2024/03/16 12:08:56;;;;;;;3.42;1.27;;;;;;;;;;4997703;28;20038;-83
2024/03/16 12:11:22;;;;;;;2.95;1.10;;;;;;;;;;4981022;28;20093;-83
2024/03/16 12:13:51;;;;;;;3.47;1.05;;;;;;;;;;4987258;28;20038;-82
2024/03/16 12:16:17;;;;;;;5.35;1.30;;;;;;;;;;4998696;28;20030;-83
2024/03/16 12:18:43;;;;;;;2.78;1.02;;;;;;;;;;5017335;28;20043;-83
2024/03/16 12:21:09;;;;;;;4.55;1.20;;;;;;;;;;5027116;28;20053;-83
2024/03/16 12:23:38;;;;;;;3.58;1.10;;;;;;;;;;4982386;28;20034;-83
2024/03/16 12:26:04;;;;;;;;;;;;;;;;;;4989625;28;20034;-83
2024/03/16 12:28:29;;;;;;;2.45;1.05;;;;;;;;;;4990555;28;19933;-81
2024/03/16 12:30:59;;;;;;;4.30;1.20;;;;;;;;;;5007889;28;20052;-82
2024/03/16 12:33:24;;;;;;;;;;;;;;;;;;5008343;28;20084;-83
2024/03/16 12:35:50;;;;;;;4.20;1.65;;;;;;;;;;4976663;28;19910;-82
2024/03/16 12:38:16;;;;;;;6.57;3.40;;;;;;;;;;5001141;28;20117;-83
2024/03/16 12:40:42;;;;;;;9.30;3.33;;;;;;;;;;4990726;28;20101;-83
2024/03/16 12:43:08;;;;;;;3.42;1.52;;;;;;;;;;4998718;28;20030;-82
2024/03/16 12:45:34;;;;;;;6.80;2.78;;;;;;;;;;5025237;28;20029;-83
2024/03/16 12:48:00;;;;;;;5.63;2.25;;;;;;;;;;4976810;28;20033;-83
2024/03/16 12:50:26;;;;;;;5.82;2.20;;;;;;;;;;4972230;28;20106;-81
2024/03/16 12:52:52;;;;;;;2.85;1.77;;;;;;;;;;4974875;28;20050;-81
2024/03/16 12:55:18;;;;;;;5.88;2.55;;;;;;;;;;4990826;28;20045;-81
2024/03/16 12:57:47;;;;;;;3.38;2.17;;;;;;;;;;4982121;28;20029;-82
2024/03/16 13:00:13;;;;;;;5.45;2.40;;;;;;;;;;4980911;28;20029;-81
2024/03/16 13:02:38;;;;;;;9.35;3.10;;;;;;;;;;4974353;28;20031;-83
2024/03/16 13:05:10;;;;;;;4.85;3.03;;;;;;;;;;5003342;28;20291;-83
2024/03/16 13:07:36;;;;;;;4.30;2.70;;;;;;;;;;5021271;28;20033;-82
2024/03/16 13:10:02;;;;;;;9.25;3.00;;;;;;;;;;4989703;28;20099;-80
2024/03/16 13:12:28;;;;;;;4.60;2.85;;;;;;;;;;4979906;28;20042;-82
2024/03/16 13:14:53;;;;;;;5.28;2.80;;;;;;;;;;5000688;28;20026;-81
2024/03/16 13:17:19;;;;;;;5.32;3.10;;;;;;;;;;4984082;28;20061;-82
2024/03/16 13:19:46;;;;;;;5.30;2.70;;;;;;;;;;4978556;28;20141;-83
2024/03/16 13:22:14;;;;;;;8.65;3.75;;;;;;;;;;4975387;28;20037;-82
2024/03/16 13:24:39;;;;;;;5.00;3.03;;;;;;;;;;4973080;28;20437;-83
2024/03/16 13:27:05;;;;;;;4.28;2.22;;;;;;;;;;4992028;28;20034;-82
2024/03/16 13:29:31;;;;;;;4.07;2.05;;;;;;;;;;4990977;28;20033;-83
2024/03/16 13:31:56;;;;;;;3.55;1.55;;;;;;;;;;4972916;28;20040;-83
2024/03/16 13:34:23;;;;;;;5.10;1.85;;;;;;;;;;4996132;28;20124;-83
2024/03/16 13:36:48;;;;;;;4.43;2.25;;;;;;;;;;4973722;28;20077;-83
2024/03/16 13:39:16;;;;;;;4.03;1.85;;;;;;;;;;4983083;28;20045;-83
2024/03/16 13:41:42;;;;;;;6.82;1.73;;;;;;;;;;4969531;28;20062;-82
2024/03/16 13:44:09;;;;;;;3.90;1.30;;;;;;;;;;4974767;28;20031;-82
2024/03/16 13:46:35;;;;;;;3.10;1.50;;;;;;;;;;4969761;28;20444;-83
2024/03/16 13:49:03;;;;;;;2.85;1.48;;;;;;;;;;5010345;28;20069;-81
2024/03/16 13:51:32;;;;;;;2.40;1.08;;;;;;;;;;4970961;28;20034;-83
2024/03/16 13:54:00;;;;;;;5.78;1.95;;;;;;;;;;5014605;28;20042;-81
2024/03/16 13:56:26;;;;;;;5.47;1.70;;;;;;;;;;4972259;28;20038;-82
2024/03/16 13:58:51;;;;;;;3.28;1.55;;;;;;;;;;5004069;28;20037;-82
2024/03/16 14:01:20;;;;;;;4.55;1.73;;;;;;;;;;4997987;28;20026;-82
2024/03/16 14:03:48;;;;;;;4.15;1.83;;;;;;;;;;4970423;28;20045;-83
2024/03/16 14:06:14;;;;;;;3.33;1.67;;;;;;;;;;4992439;28;20037;-82
2024/03/16 14:08:42;;;;;;;4.57;1.95;;;;;;;;;;4988839;28;20817;-82
2024/03/16 14:11:08;;;;;;;;;;;;;;;;;;4998120;28;20068;-84
2024/03/16 14:13:34;;;;;;;5.18;1.52;;;;;;;;;;4983662;28;19909;-82
2024/03/16 14:15:59;;;;;;;7.82;1.90;;;;;;;;;;4982450;28;20125;-83
2024/03/16 14:18:25;;;;;;;6.22;1.70;;;;;;;;;;4997989;28;20089;-82
2024/03/16 14:20:54;;;;;;;7.53;1.98;;;;;;;;;;5013315;28;20031;-82
2024/03/16 14:23:20;;;;;;;4.82;1.92;;;;;;;;;;5003105;28;20493;-82
2024/03/16 14:25:47;;;;;;;4.90;1.85;;;;;;;;;;5016968;28;20105;-83
2024/03/16 14:28:14;;;;;;;4.03;2.17;;;;;;;;;;5006844;28;20033;-82
2024/03/16 14:30:41;;;;;;;5.75;2.10;;;;;;;;;;4977518;28;20034;-82
2024/03/16 14:33:07;;;;;;;9.07;1.83;;;;;;;;;;4969923;28;20034;-83
2024/03/16 14:35:38;;;;;;;6.40;2.85;;;;;;;;;;5016918;28;20113;-83
2024/03/16 14:38:05;;;;;;;4.35;1.50;;;;;;;;;;5001993;28;20113;-83
2024/03/16 14:40:32;;;;;;;2.72;1.42;;;;;;;;;;4998900;28;20029;-83
2024/03/16 14:42:57;;;;;;;2.85;1.40;;;;;;;;;;4976603;28;20034;-82
2024/03/16 14:45:24;;;;;;;3.40;1.60;;;;;;;;;;4995143;28;20041;-83
2024/03/16 14:47:51;;;;;;;3.53;1.45;;;;;;;;;;4985170;28;20030;-81